Arizona, Louisiana
Current Conditions -  °F | °C
As of 11:14 AM on Saturday 25 Oct 2014 (Local Time) from KMNE Reporting Station
Clear Clear  
Wind Chill: 23°   Ceiling: Unl
Heat Index: 23°   Visibility: 10mi
Dew Point: 16°   Wind: 6mph
Humidity: 65%   Direction: 230°SW
Pressure: 30.18"   Gusts: NA
Location:  32.7443°N, 92.9625°W
Report Text: KMNE 251614Z AUTO 23005KT 10SM CLR 23/16 A3018 RMK AO2
Loading
Personal Weather Stations






























Interactive Weather Map
Tropical Storm Tracking
New forecast layout! Learn more

10-Day Weather Forecast

Advertisements
Track Severe Weather on mobile